Forside
METAR-TAF:

METAR-TAF

Lufthavne :

Des Moines, Iowa, USA

Breddekreds: 41-32-16N, længdekreds: 093-39-58W, højde: 291 m

Aktuelle vejr

Denne rapport blev lavet for 58 minutter siden, kl. 15:54 UTC
Vind stille
Temperatur 23°C
Fugtighed 61%
Tryk 1021 hPa
Sigt: 16.1 km
Nogle få skyer i en højde af 3500 ft
Nogle få skyer i en højde af 25000 ft
Brudte skyer i en højde af 30000 ft

METAR: KDSM 031554Z 00000KT 10SM FEW035 FEW250 BKN300 23/15 A3014 RMK AO2 SLP201 T02330150

Tid: 11:52 (16:52 UTC)

Vejrudsigter

Denne rapport blev lavet for 5 timer og 26 minutter siden, kl. 11:26 UTC
Foreløbig gælder fra 03 på 12 UTC til 04 på 12 UTC
Vind 3 kt fra varierende retninger
Sigt: 10 km
Nogle få skyer i en højde af 25000 ft

TAF: KDSM 031126Z 0312/0412 VRB03KT P6SM FEW250

Vejrobservationer og prognoser fra mere end 4000 lufthavne (METAR og TAF).

De gule og røde prikker repræsenterer de meteorologiske stationer.

Flyt musen over at se navnet på stationen.

Så klik over at se vejr observationer og prognoser.

At skifte det kort: Klik på de grønne knapper med et sort kors for at zoome ind; på den grønne knap med en bindestreg for at zoome ud; eller på de grønne pile for tilstødende kort.


METAR-TAF: